sensor_id;sensor_type;location;lat;lon;timestamp;P1;durP1;ratioP1;P2;durP2;ratioP2
11425;SDS011;5769;47.998;7.788;2024-03-07T00:01:32;324.60;;;50.03;;
11425;SDS011;5769;47.998;7.788;2024-03-07T00:03:59;320.40;;;49.50;;
11425;SDS011;5769;47.998;7.788;2024-03-07T00:06:27;321.10;;;49.90;;
11425;SDS011;5769;47.998;7.788;2024-03-07T00:08:53;320.80;;;49.90;;
11425;SDS011;5769;47.998;7.788;2024-03-07T00:11:20;322.50;;;50.03;;
11425;SDS011;5769;47.998;7.788;2024-03-07T00:13:47;320.37;;;49.70;;
11425;SDS011;5769;47.998;7.788;2024-03-07T00:16:14;322.23;;;50.27;;
11425;SDS011;5769;47.998;7.788;2024-03-07T00:18:42;320.97;;;50.50;;
11425;SDS011;5769;47.998;7.788;2024-03-07T00:21:09;320.43;;;50.23;;
11425;SDS011;5769;47.998;7.788;2024-03-07T00:23:37;320.17;;;51.30;;
11425;SDS011;5769;47.998;7.788;2024-03-07T00:26:03;320.13;;;50.30;;
11425;SDS011;5769;47.998;7.788;2024-03-07T00:28:30;319.17;;;49.57;;
11425;SDS011;5769;47.998;7.788;2024-03-07T00:31:03;320.60;;;53.60;;
11425;SDS011;5769;47.998;7.788;2024-03-07T00:33:32;318.77;;;50.63;;
11425;SDS011;5769;47.998;7.788;2024-03-07T00:35:58;318.50;;;50.80;;
11425;SDS011;5769;47.998;7.788;2024-03-07T00:38:26;321.27;;;54.20;;
11425;SDS011;5769;47.998;7.788;2024-03-07T00:40:54;317.77;;;51.20;;
11425;SDS011;5769;47.998;7.788;2024-03-07T00:43:20;316.27;;;50.27;;
11425;SDS011;5769;47.998;7.788;2024-03-07T00:45:47;320.63;;;50.67;;
11425;SDS011;5769;47.998;7.788;2024-03-07T00:48:15;318.60;;;49.90;;
11425;SDS011;5769;47.998;7.788;2024-03-07T00:50:41;317.90;;;49.13;;
11425;SDS011;5769;47.998;7.788;2024-03-07T00:53:08;312.27;;;48.67;;
11425;SDS011;5769;47.998;7.788;2024-03-07T00:55:35;312.80;;;48.23;;
11425;SDS011;5769;47.998;7.788;2024-03-07T00:58:03;318.00;;;47.83;;
11425;SDS011;5769;47.998;7.788;2024-03-07T01:00:30;324.13;;;49.20;;
11425;SDS011;5769;47.998;7.788;2024-03-07T01:02:57;324.20;;;49.63;;
11425;SDS011;5769;47.998;7.788;2024-03-07T01:05:23;317.03;;;50.03;;
11425;SDS011;5769;47.998;7.788;2024-03-07T01:07:50;313.17;;;49.17;;
11425;SDS011;5769;47.998;7.788;2024-03-07T01:10:18;314.93;;;49.63;;
11425;SDS011;5769;47.998;7.788;2024-03-07T01:12:44;321.23;;;58.63;;
11425;SDS011;5769;47.998;7.788;2024-03-07T01:15:12;318.57;;;49.90;;
11425;SDS011;5769;47.998;7.788;2024-03-07T01:17:40;319.30;;;49.53;;
11425;SDS011;5769;47.998;7.788;2024-03-07T01:20:07;322.40;;;54.00;;
11425;SDS011;5769;47.998;7.788;2024-03-07T01:22:34;318.67;;;50.17;;
11425;SDS011;5769;47.998;7.788;2024-03-07T01:25:01;315.07;;;49.20;;
11425;SDS011;5769;47.998;7.788;2024-03-07T01:27:29;311.77;;;47.83;;
11425;SDS011;5769;47.998;7.788;2024-03-07T01:29:55;304.27;;;44.40;;
11425;SDS011;5769;47.998;7.788;2024-03-07T01:32:23;305.00;;;44.93;;
11425;SDS011;5769;47.998;7.788;2024-03-07T01:34:50;308.07;;;44.83;;
11425;SDS011;5769;47.998;7.788;2024-03-07T01:37:17;308.97;;;45.47;;
11425;SDS011;5769;47.998;7.788;2024-03-07T01:39:43;302.33;;;44.50;;
11425;SDS011;5769;47.998;7.788;2024-03-07T01:42:11;312.07;;;48.83;;
11425;SDS011;5769;47.998;7.788;2024-03-07T01:44:38;325.65;;;49.33;;
11425;SDS011;5769;47.998;7.788;2024-03-07T01:47:06;290.33;;;49.43;;
11425;SDS011;5769;47.998;7.788;2024-03-07T01:49:35;296.20;;;53.80;;
11425;SDS011;5769;47.998;7.788;2024-03-07T01:52:05;265.73;;;42.90;;
11425;SDS011;5769;47.998;7.788;2024-03-07T01:54:32;269.83;;;43.43;;
11425;SDS011;5769;47.998;7.788;2024-03-07T01:57:00;256.80;;;43.33;;
11425;SDS011;5769;47.998;7.788;2024-03-07T01:59:29;284.23;;;47.20;;
11425;SDS011;5769;47.998;7.788;2024-03-07T02:01:57;276.93;;;43.67;;
11425;SDS011;5769;47.998;7.788;2024-03-07T02:04:27;263.27;;;43.07;;
11425;SDS011;5769;47.998;7.788;2024-03-07T02:06:55;272.40;;;45.63;;
11425;SDS011;5769;47.998;7.788;2024-03-07T02:09:23;321.83;;;59.93;;
11425;SDS011;5769;47.998;7.788;2024-03-07T02:11:50;330.40;;;53.23;;
11425;SDS011;5769;47.998;7.788;2024-03-07T02:14:17;305.37;;;54.17;;
11425;SDS011;5769;47.998;7.788;2024-03-07T02:16:44;319.07;;;57.23;;
11425;SDS011;5769;47.998;7.788;2024-03-07T02:19:11;311.00;;;46.80;;
11425;SDS011;5769;47.998;7.788;2024-03-07T02:21:42;302.27;;;44.30;;
11425;SDS011;5769;47.998;7.788;2024-03-07T02:24:09;291.13;;;44.23;;
11425;SDS011;5769;47.998;7.788;2024-03-07T02:26:36;256.03;;;43.23;;
11425;SDS011;5769;47.998;7.788;2024-03-07T02:29:04;252.73;;;43.47;;
11425;SDS011;5769;47.998;7.788;2024-03-07T02:31:31;253.07;;;43.47;;
11425;SDS011;5769;47.998;7.788;2024-03-07T02:34:02;249.67;;;43.20;;
11425;SDS011;5769;47.998;7.788;2024-03-07T02:36:28;246.60;;;43.57;;
11425;SDS011;5769;47.998;7.788;2024-03-07T02:38:56;246.87;;;43.27;;
11425;SDS011;5769;47.998;7.788;2024-03-07T02:41:24;242.23;;;42.17;;
11425;SDS011;5769;47.998;7.788;2024-03-07T02:43:51;245.77;;;43.30;;
11425;SDS011;5769;47.998;7.788;2024-03-07T02:46:18;251.83;;;42.90;;
11425;SDS011;5769;47.998;7.788;2024-03-07T02:48:45;252.23;;;42.77;;
11425;SDS011;5769;47.998;7.788;2024-03-07T02:51:12;250.13;;;42.83;;
11425;SDS011;5769;47.998;7.788;2024-03-07T02:53:39;249.30;;;43.07;;
11425;SDS011;5769;47.998;7.788;2024-03-07T02:56:07;247.93;;;42.80;;
11425;SDS011;5769;47.998;7.788;2024-03-07T02:58:34;250.83;;;43.33;;
11425;SDS011;5769;47.998;7.788;2024-03-07T03:01:01;251.43;;;43.40;;
11425;SDS011;5769;47.998;7.788;2024-03-07T03:03:29;246.87;;;43.17;;
11425;SDS011;5769;47.998;7.788;2024-03-07T03:05:57;252.17;;;43.10;;
11425;SDS011;5769;47.998;7.788;2024-03-07T03:08:24;247.57;;;43.33;;
11425;SDS011;5769;47.998;7.788;2024-03-07T03:10:53;249.10;;;43.23;;
11425;SDS011;5769;47.998;7.788;2024-03-07T03:13:23;333.98;;;53.55;;
11425;SDS011;5769;47.998;7.788;2024-03-07T03:15:49;246.97;;;43.43;;
11425;SDS011;5769;47.998;7.788;2024-03-07T03:18:16;262.43;;;42.53;;
11425;SDS011;5769;47.998;7.788;2024-03-07T03:20:44;259.53;;;42.77;;
11425;SDS011;5769;47.998;7.788;2024-03-07T03:23:13;256.77;;;42.80;;
11425;SDS011;5769;47.998;7.788;2024-03-07T03:25:40;255.93;;;43.00;;
11425;SDS011;5769;47.998;7.788;2024-03-07T03:28:08;255.27;;;42.70;;
11425;SDS011;5769;47.998;7.788;2024-03-07T03:30:37;256.70;;;42.90;;
11425;SDS011;5769;47.998;7.788;2024-03-07T03:33:04;253.07;;;43.03;;
11425;SDS011;5769;47.998;7.788;2024-03-07T03:35:31;249.50;;;43.07;;
11425;SDS011;5769;47.998;7.788;2024-03-07T03:37:58;248.53;;;42.93;;
11425;SDS011;5769;47.998;7.788;2024-03-07T03:40:25;247.43;;;43.23;;
11425;SDS011;5769;47.998;7.788;2024-03-07T03:42:52;245.97;;;43.60;;
11425;SDS011;5769;47.998;7.788;2024-03-07T03:45:19;244.47;;;43.17;;
11425;SDS011;5769;47.998;7.788;2024-03-07T03:47:47;244.63;;;43.17;;
11425;SDS011;5769;47.998;7.788;2024-03-07T03:50:14;243.17;;;43.23;;
11425;SDS011;5769;47.998;7.788;2024-03-07T03:52:41;242.03;;;43.10;;
11425;SDS011;5769;47.998;7.788;2024-03-07T03:55:08;243.20;;;43.13;;
11425;SDS011;5769;47.998;7.788;2024-03-07T03:57:36;247.93;;;43.30;;
11425;SDS011;5769;47.998;7.788;2024-03-07T04:00:04;247.53;;;42.90;;
11425;SDS011;5769;47.998;7.788;2024-03-07T04:02:37;253.13;;;42.50;;
11425;SDS011;5769;47.998;7.788;2024-03-07T04:05:06;251.67;;;42.80;;
11425;SDS011;5769;47.998;7.788;2024-03-07T04:07:34;253.13;;;42.97;;
11425;SDS011;5769;47.998;7.788;2024-03-07T04:10:01;247.90;;;43.07;;
11425;SDS011;5769;47.998;7.788;2024-03-07T04:12:29;248.63;;;43.00;;
11425;SDS011;5769;47.998;7.788;2024-03-07T04:14:56;247.33;;;43.03;;
11425;SDS011;5769;47.998;7.788;2024-03-07T04:17:22;250.03;;;43.07;;
11425;SDS011;5769;47.998;7.788;2024-03-07T04:19:50;249.53;;;43.00;;
11425;SDS011;5769;47.998;7.788;2024-03-07T04:22:18;247.47;;;43.17;;
11425;SDS011;5769;47.998;7.788;2024-03-07T04:24:45;250.40;;;42.90;;
11425;SDS011;5769;47.998;7.788;2024-03-07T04:27:13;256.07;;;42.37;;
11425;SDS011;5769;47.998;7.788;2024-03-07T04:29:41;253.37;;;42.73;;
11425;SDS011;5769;47.998;7.788;2024-03-07T04:32:07;252.20;;;42.93;;
11425;SDS011;5769;47.998;7.788;2024-03-07T04:34:34;249.70;;;42.97;;
11425;SDS011;5769;47.998;7.788;2024-03-07T04:37:01;248.03;;;43.10;;
11425;SDS011;5769;47.998;7.788;2024-03-07T04:39:30;246.33;;;43.10;;
11425;SDS011;5769;47.998;7.788;2024-03-07T04:41:58;244.93;;;43.30;;
11425;SDS011;5769;47.998;7.788;2024-03-07T04:44:26;243.23;;;43.23;;
11425;SDS011;5769;47.998;7.788;2024-03-07T04:46:53;244.83;;;43.33;;
11425;SDS011;5769;47.998;7.788;2024-03-07T04:49:21;243.80;;;43.37;;
11425;SDS011;5769;47.998;7.788;2024-03-07T04:51:49;242.57;;;43.40;;
11425;SDS011;5769;47.998;7.788;2024-03-07T04:54:16;240.43;;;42.77;;
11425;SDS011;5769;47.998;7.788;2024-03-07T04:56:44;241.40;;;42.03;;
11425;SDS011;5769;47.998;7.788;2024-03-07T04:59:11;148.23;;;33.67;;
11425;SDS011;5769;47.998;7.788;2024-03-07T05:01:38;146.67;;;31.43;;
11425;SDS011;5769;47.998;7.788;2024-03-07T05:04:05;145.17;;;31.00;;
11425;SDS011;5769;47.998;7.788;2024-03-07T05:06:32;142.83;;;28.30;;
11425;SDS011;5769;47.998;7.788;2024-03-07T05:08:59;159.37;;;29.97;;
11425;SDS011;5769;47.998;7.788;2024-03-07T05:11:27;247.30;;;43.80;;
11425;SDS011;5769;47.998;7.788;2024-03-07T05:13:55;246.03;;;42.97;;
11425;SDS011;5769;47.998;7.788;2024-03-07T05:16:22;213.13;;;38.00;;
11425;SDS011;5769;47.998;7.788;2024-03-07T05:18:49;156.53;;;31.83;;
11425;SDS011;5769;47.998;7.788;2024-03-07T05:21:17;147.97;;;28.00;;
11425;SDS011;5769;47.998;7.788;2024-03-07T05:24:02;144.90;;;28.43;;
11425;SDS011;5769;47.998;7.788;2024-03-07T05:26:29;184.30;;;32.77;;
11425;SDS011;5769;47.998;7.788;2024-03-07T05:29:00;242.67;;;42.67;;
11425;SDS011;5769;47.998;7.788;2024-03-07T05:31:30;242.90;;;42.67;;
11425;SDS011;5769;47.998;7.788;2024-03-07T05:33:58;225.63;;;39.70;;
11425;SDS011;5769;47.998;7.788;2024-03-07T05:36:25;148.93;;;31.97;;
11425;SDS011;5769;47.998;7.788;2024-03-07T05:38:52;139.37;;;30.83;;
11425;SDS011;5769;47.998;7.788;2024-03-07T05:41:19;137.83;;;30.90;;
11425;SDS011;5769;47.998;7.788;2024-03-07T05:43:45;137.10;;;30.80;;
11425;SDS011;5769;47.998;7.788;2024-03-07T05:46:13;138.17;;;30.00;;
11425;SDS011;5769;47.998;7.788;2024-03-07T05:48:40;135.73;;;26.70;;
11425;SDS011;5769;47.998;7.788;2024-03-07T05:51:07;133.03;;;24.77;;
11425;SDS011;5769;47.998;7.788;2024-03-07T05:53:35;133.57;;;24.80;;
11425;SDS011;5769;47.998;7.788;2024-03-07T05:56:02;131.00;;;24.20;;
11425;SDS011;5769;47.998;7.788;2024-03-07T05:58:29;126.93;;;23.73;;
11425;SDS011;5769;47.998;7.788;2024-03-07T06:00:56;126.23;;;22.87;;
11425;SDS011;5769;47.998;7.788;2024-03-07T06:03:24;125.53;;;23.10;;
11425;SDS011;5769;47.998;7.788;2024-03-07T06:05:51;126.23;;;23.33;;
11425;SDS011;5769;47.998;7.788;2024-03-07T06:08:19;123.43;;;23.43;;
11425;SDS011;5769;47.998;7.788;2024-03-07T06:10:47;120.57;;;24.00;;
11425;SDS011;5769;47.998;7.788;2024-03-07T06:13:15;114.57;;;23.53;;
11425;SDS011;5769;47.998;7.788;2024-03-07T06:15:42;115.00;;;23.87;;
11425;SDS011;5769;47.998;7.788;2024-03-07T06:18:10;112.97;;;23.40;;
11425;SDS011;5769;47.998;7.788;2024-03-07T06:20:39;108.00;;;23.40;;
11425;SDS011;5769;47.998;7.788;2024-03-07T06:23:07;102.60;;;23.23;;
11425;SDS011;5769;47.998;7.788;2024-03-07T06:25:34;98.53;;;22.90;;
11425;SDS011;5769;47.998;7.788;2024-03-07T06:28:02;90.83;;;22.23;;
11425;SDS011;5769;47.998;7.788;2024-03-07T06:30:35;85.40;;;21.23;;
11425;SDS011;5769;47.998;7.788;2024-03-07T06:33:03;77.10;;;19.47;;
11425;SDS011;5769;47.998;7.788;2024-03-07T06:35:30;68.80;;;17.37;;
11425;SDS011;5769;47.998;7.788;2024-03-07T06:37:58;342.30;;;50.22;;
11425;SDS011;5769;47.998;7.788;2024-03-07T06:40:25;348.33;;;50.17;;
11425;SDS011;5769;47.998;7.788;2024-03-07T06:42:51;342.92;;;51.67;;
11425;SDS011;5769;47.998;7.788;2024-03-07T06:45:18;339.35;;;49.63;;
11425;SDS011;5769;47.998;7.788;2024-03-07T06:47:45;335.00;;;50.63;;
11425;SDS011;5769;47.998;7.788;2024-03-07T06:50:12;341.88;;;49.00;;
11425;SDS011;5769;47.998;7.788;2024-03-07T06:52:42;345.10;;;49.83;;
11425;SDS011;5769;47.998;7.788;2024-03-07T06:55:11;342.65;;;49.38;;
11425;SDS011;5769;47.998;7.788;2024-03-07T06:57:38;346.88;;;49.92;;
11425;SDS011;5769;47.998;7.788;2024-03-07T07:00:05;343.17;;;50.03;;
11425;SDS011;5769;47.998;7.788;2024-03-07T07:02:36;300.20;;;46.40;;
11425;SDS011;5769;47.998;7.788;2024-03-07T07:05:04;289.97;;;46.77;;
11425;SDS011;5769;47.998;7.788;2024-03-07T07:07:36;223.10;;;39.77;;
11425;SDS011;5769;47.998;7.788;2024-03-07T07:10:03;229.27;;;41.67;;
11425;SDS011;5769;47.998;7.788;2024-03-07T07:12:34;270.30;;;43.90;;
11425;SDS011;5769;47.998;7.788;2024-03-07T07:15:01;265.97;;;42.93;;
11425;SDS011;5769;47.998;7.788;2024-03-07T07:17:28;258.97;;;42.63;;
11425;SDS011;5769;47.998;7.788;2024-03-07T07:19:56;316.33;;;55.17;;
11425;SDS011;5769;47.998;7.788;2024-03-07T07:22:24;294.23;;;46.20;;
11425;SDS011;5769;47.998;7.788;2024-03-07T07:24:51;256.50;;;42.20;;
11425;SDS011;5769;47.998;7.788;2024-03-07T07:27:18;252.87;;;42.47;;
11425;SDS011;5769;47.998;7.788;2024-03-07T07:29:46;263.47;;;42.40;;
11425;SDS011;5769;47.998;7.788;2024-03-07T07:32:12;264.90;;;42.73;;
11425;SDS011;5769;47.998;7.788;2024-03-07T07:34:39;277.47;;;44.30;;
11425;SDS011;5769;47.998;7.788;2024-03-07T07:37:07;303.40;;;48.27;;
11425;SDS011;5769;47.998;7.788;2024-03-07T07:39:35;333.37;;;63.83;;
11425;SDS011;5769;47.998;7.788;2024-03-07T07:42:01;313.30;;;60.33;;
11425;SDS011;5769;47.998;7.788;2024-03-07T07:44:28;236.57;;;39.90;;
11425;SDS011;5769;47.998;7.788;2024-03-07T07:46:57;246.23;;;42.37;;
11425;SDS011;5769;47.998;7.788;2024-03-07T07:49:23;262.37;;;44.03;;
11425;SDS011;5769;47.998;7.788;2024-03-07T07:51:50;263.10;;;44.20;;
11425;SDS011;5769;47.998;7.788;2024-03-07T07:54:18;268.97;;;44.40;;
11425;SDS011;5769;47.998;7.788;2024-03-07T07:56:45;264.23;;;44.20;;
11425;SDS011;5769;47.998;7.788;2024-03-07T07:59:13;260.63;;;43.87;;
11425;SDS011;5769;47.998;7.788;2024-03-07T08:01:40;254.00;;;43.87;;
11425;SDS011;5769;47.998;7.788;2024-03-07T08:04:08;217.40;;;40.90;;
11425;SDS011;5769;47.998;7.788;2024-03-07T08:06:36;246.40;;;43.30;;
11425;SDS011;5769;47.998;7.788;2024-03-07T08:09:03;204.10;;;38.20;;
11425;SDS011;5769;47.998;7.788;2024-03-07T08:11:34;265.23;;;43.53;;
11425;SDS011;5769;47.998;7.788;2024-03-07T08:14:01;262.13;;;44.80;;
11425;SDS011;5769;47.998;7.788;2024-03-07T08:16:28;268.40;;;43.20;;
11425;SDS011;5769;47.998;7.788;2024-03-07T08:18:55;265.40;;;43.77;;
11425;SDS011;5769;47.998;7.788;2024-03-07T08:21:23;267.10;;;49.07;;
11425;SDS011;5769;47.998;7.788;2024-03-07T08:23:50;261.90;;;46.30;;
11425;SDS011;5769;47.998;7.788;2024-03-07T08:26:17;268.87;;;43.17;;
11425;SDS011;5769;47.998;7.788;2024-03-07T08:28:43;264.07;;;43.77;;
11425;SDS011;5769;47.998;7.788;2024-03-07T08:31:10;265.30;;;42.93;;
11425;SDS011;5769;47.998;7.788;2024-03-07T08:33:37;263.67;;;42.90;;
11425;SDS011;5769;47.998;7.788;2024-03-07T08:36:04;263.77;;;43.30;;
11425;SDS011;5769;47.998;7.788;2024-03-07T08:38:36;260.53;;;42.23;;
11425;SDS011;5769;47.998;7.788;2024-03-07T08:41:04;264.53;;;42.43;;
11425;SDS011;5769;47.998;7.788;2024-03-07T08:43:31;262.90;;;42.90;;
11425;SDS011;5769;47.998;7.788;2024-03-07T08:45:58;263.20;;;42.87;;
11425;SDS011;5769;47.998;7.788;2024-03-07T08:48:25;262.47;;;43.03;;
11425;SDS011;5769;47.998;7.788;2024-03-07T08:50:51;262.67;;;42.53;;
11425;SDS011;5769;47.998;7.788;2024-03-07T08:53:18;262.83;;;42.33;;
11425;SDS011;5769;47.998;7.788;2024-03-07T08:55:46;260.83;;;42.30;;
11425;SDS011;5769;47.998;7.788;2024-03-07T08:58:13;302.30;;;45.27;;
11425;SDS011;5769;47.998;7.788;2024-03-07T09:00:40;294.07;;;43.97;;
11425;SDS011;5769;47.998;7.788;2024-03-07T09:03:06;302.07;;;44.60;;
11425;SDS011;5769;47.998;7.788;2024-03-07T09:05:35;305.57;;;44.70;;
11425;SDS011;5769;47.998;7.788;2024-03-07T09:08:02;303.63;;;44.43;;
11425;SDS011;5769;47.998;7.788;2024-03-07T09:10:30;308.97;;;45.00;;
11425;SDS011;5769;47.998;7.788;2024-03-07T09:12:58;310.57;;;45.80;;
11425;SDS011;5769;47.998;7.788;2024-03-07T09:15:25;306.03;;;45.57;;
11425;SDS011;5769;47.998;7.788;2024-03-07T09:17:52;310.00;;;45.20;;
11425;SDS011;5769;47.998;7.788;2024-03-07T09:20:19;305.43;;;44.50;;
11425;SDS011;5769;47.998;7.788;2024-03-07T09:22:46;300.33;;;45.13;;
11425;SDS011;5769;47.998;7.788;2024-03-07T09:25:13;303.17;;;44.23;;
11425;SDS011;5769;47.998;7.788;2024-03-07T09:27:41;302.97;;;44.37;;
11425;SDS011;5769;47.998;7.788;2024-03-07T09:30:10;296.30;;;44.70;;
11425;SDS011;5769;47.998;7.788;2024-03-07T09:32:39;292.43;;;44.17;;
11425;SDS011;5769;47.998;7.788;2024-03-07T09:35:07;289.10;;;43.70;;
11425;SDS011;5769;47.998;7.788;2024-03-07T09:37:37;286.83;;;44.17;;
11425;SDS011;5769;47.998;7.788;2024-03-07T09:40:06;293.17;;;44.03;;
11425;SDS011;5769;47.998;7.788;2024-03-07T09:42:34;285.83;;;43.97;;
11425;SDS011;5769;47.998;7.788;2024-03-07T09:45:03;303.07;;;44.60;;
11425;SDS011;5769;47.998;7.788;2024-03-07T09:47:33;304.33;;;44.50;;
11425;SDS011;5769;47.998;7.788;2024-03-07T09:50:00;300.63;;;45.00;;
11425;SDS011;5769;47.998;7.788;2024-03-07T09:52:27;297.73;;;44.33;;
11425;SDS011;5769;47.998;7.788;2024-03-07T09:54:55;293.47;;;44.03;;
11425;SDS011;5769;47.998;7.788;2024-03-07T09:57:24;297.57;;;44.73;;
11425;SDS011;5769;47.998;7.788;2024-03-07T09:59:52;293.43;;;44.13;;
11425;SDS011;5769;47.998;7.788;2024-03-07T10:02:20;295.17;;;44.20;;
11425;SDS011;5769;47.998;7.788;2024-03-07T10:04:51;290.10;;;44.60;;
11425;SDS011;5769;47.998;7.788;2024-03-07T10:07:21;289.53;;;44.07;;
11425;SDS011;5769;47.998;7.788;2024-03-07T10:09:48;291.10;;;44.17;;
11425;SDS011;5769;47.998;7.788;2024-03-07T10:12:17;288.97;;;44.90;;
11425;SDS011;5769;47.998;7.788;2024-03-07T10:14:55;284.67;;;43.90;;
11425;SDS011;5769;47.998;7.788;2024-03-07T10:17:23;285.87;;;44.00;;
11425;SDS011;5769;47.998;7.788;2024-03-07T10:19:52;282.77;;;44.40;;
11425;SDS011;5769;47.998;7.788;2024-03-07T10:22:19;284.63;;;43.80;;
11425;SDS011;5769;47.998;7.788;2024-03-07T10:24:50;282.07;;;43.93;;
11425;SDS011;5769;47.998;7.788;2024-03-07T10:27:17;280.73;;;44.63;;
11425;SDS011;5769;47.998;7.788;2024-03-07T10:29:46;279.47;;;43.97;;
11425;SDS011;5769;47.998;7.788;2024-03-07T10:32:13;276.23;;;43.70;;
11425;SDS011;5769;47.998;7.788;2024-03-07T10:34:40;276.73;;;43.80;;
11425;SDS011;5769;47.998;7.788;2024-03-07T10:37:12;278.43;;;43.77;;
11425;SDS011;5769;47.998;7.788;2024-03-07T10:39:41;278.63;;;45.20;;
11425;SDS011;5769;47.998;7.788;2024-03-07T10:42:09;277.93;;;43.50;;
11425;SDS011;5769;47.998;7.788;2024-03-07T10:44:41;279.47;;;43.83;;
11425;SDS011;5769;47.998;7.788;2024-03-07T10:47:09;278.93;;;44.57;;
11425;SDS011;5769;47.998;7.788;2024-03-07T10:49:43;276.50;;;43.67;;
11425;SDS011;5769;47.998;7.788;2024-03-07T10:52:21;279.07;;;43.80;;
11425;SDS011;5769;47.998;7.788;2024-03-07T10:54:56;281.07;;;44.20;;
11425;SDS011;5769;47.998;7.788;2024-03-07T10:57:36;284.57;;;43.80;;
11425;SDS011;5769;47.998;7.788;2024-03-07T11:00:12;291.53;;;44.17;;
11425;SDS011;5769;47.998;7.788;2024-03-07T11:02:55;286.77;;;44.07;;
11425;SDS011;5769;47.998;7.788;2024-03-07T11:05:24;282.57;;;44.27;;
11425;SDS011;5769;47.998;7.788;2024-03-07T11:07:55;282.77;;;44.57;;
11425;SDS011;5769;47.998;7.788;2024-03-07T11:10:24;278.87;;;43.60;;
11425;SDS011;5769;47.998;7.788;2024-03-07T11:12:51;276.40;;;43.77;;
11425;SDS011;5769;47.998;7.788;2024-03-07T11:15:19;276.93;;;44.43;;
11425;SDS011;5769;47.998;7.788;2024-03-07T11:17:47;278.37;;;44.07;;
11425;SDS011;5769;47.998;7.788;2024-03-07T11:20:19;277.70;;;43.90;;
11425;SDS011;5769;47.998;7.788;2024-03-07T11:22:47;275.80;;;43.73;;
11425;SDS011;5769;47.998;7.788;2024-03-07T11:25:17;278.33;;;43.60;;
11425;SDS011;5769;47.998;7.788;2024-03-07T11:27:50;275.07;;;43.60;;
11425;SDS011;5769;47.998;7.788;2024-03-07T11:30:19;278.30;;;43.90;;
11425;SDS011;5769;47.998;7.788;2024-03-07T11:32:47;278.43;;;43.63;;
11425;SDS011;5769;47.998;7.788;2024-03-07T11:35:15;278.87;;;44.07;;
11425;SDS011;5769;47.998;7.788;2024-03-07T11:37:47;276.53;;;43.70;;
11425;SDS011;5769;47.998;7.788;2024-03-07T11:43:14;279.90;;;44.50;;
11425;SDS011;5769;47.998;7.788;2024-03-07T11:45:40;276.27;;;43.80;;
11425;SDS011;5769;47.998;7.788;2024-03-07T11:48:10;275.47;;;43.60;;
11425;SDS011;5769;47.998;7.788;2024-03-07T11:50:38;277.47;;;44.07;;
11425;SDS011;5769;47.998;7.788;2024-03-07T11:53:06;275.63;;;43.77;;
11425;SDS011;5769;47.998;7.788;2024-03-07T11:55:33;274.47;;;43.53;;
11425;SDS011;5769;47.998;7.788;2024-03-07T11:58:09;274.50;;;43.67;;
11425;SDS011;5769;47.998;7.788;2024-03-07T12:00:37;277.13;;;43.60;;
11425;SDS011;5769;47.998;7.788;2024-03-07T12:03:08;274.43;;;43.63;;
11425;SDS011;5769;47.998;7.788;2024-03-07T12:05:38;275.20;;;43.87;;
11425;SDS011;5769;47.998;7.788;2024-03-07T12:08:06;276.77;;;43.70;;
11425;SDS011;5769;47.998;7.788;2024-03-07T12:10:34;274.30;;;44.43;;
11425;SDS011;5769;47.998;7.788;2024-03-07T12:13:03;276.93;;;43.90;;
11425;SDS011;5769;47.998;7.788;2024-03-07T12:15:32;274.60;;;43.47;;
11425;SDS011;5769;47.998;7.788;2024-03-07T12:17:59;274.97;;;43.93;;
11425;SDS011;5769;47.998;7.788;2024-03-07T12:20:28;275.40;;;43.40;;
11425;SDS011;5769;47.998;7.788;2024-03-07T12:22:58;276.23;;;43.33;;
11425;SDS011;5769;47.998;7.788;2024-03-07T12:25:27;272.97;;;43.97;;
11425;SDS011;5769;47.998;7.788;2024-03-07T12:28:01;270.63;;;43.40;;
11425;SDS011;5769;47.998;7.788;2024-03-07T12:30:31;270.37;;;43.27;;
11425;SDS011;5769;47.998;7.788;2024-03-07T12:33:00;271.57;;;43.43;;
11425;SDS011;5769;47.998;7.788;2024-03-07T12:35:29;270.57;;;43.00;;
11425;SDS011;5769;47.998;7.788;2024-03-07T12:37:56;272.40;;;43.13;;
11425;SDS011;5769;47.998;7.788;2024-03-07T12:40:23;271.03;;;43.40;;
11425;SDS011;5769;47.998;7.788;2024-03-07T12:42:50;270.63;;;43.30;;
11425;SDS011;5769;47.998;7.788;2024-03-07T12:45:19;270.17;;;43.50;;
11425;SDS011;5769;47.998;7.788;2024-03-07T12:47:47;274.40;;;43.53;;
11425;SDS011;5769;47.998;7.788;2024-03-07T12:50:16;271.13;;;43.57;;
11425;SDS011;5769;47.998;7.788;2024-03-07T12:52:45;268.67;;;43.80;;
11425;SDS011;5769;47.998;7.788;2024-03-07T12:55:14;269.87;;;43.20;;
11425;SDS011;5769;47.998;7.788;2024-03-07T12:57:43;267.43;;;42.90;;
11425;SDS011;5769;47.998;7.788;2024-03-07T13:00:10;268.10;;;43.47;;
11425;SDS011;5769;47.998;7.788;2024-03-07T13:02:44;266.70;;;42.87;;
11425;SDS011;5769;47.998;7.788;2024-03-07T13:05:13;267.33;;;43.00;;
11425;SDS011;5769;47.998;7.788;2024-03-07T13:07:44;270.97;;;43.17;;
11425;SDS011;5769;47.998;7.788;2024-03-07T13:10:12;268.23;;;43.37;;
11425;SDS011;5769;47.998;7.788;2024-03-07T13:12:40;268.27;;;43.07;;
11425;SDS011;5769;47.998;7.788;2024-03-07T13:15:08;271.83;;;43.17;;
11425;SDS011;5769;47.998;7.788;2024-03-07T13:17:36;267.97;;;43.23;;
11425;SDS011;5769;47.998;7.788;2024-03-07T13:20:03;275.50;;;43.47;;
11425;SDS011;5769;47.998;7.788;2024-03-07T13:22:38;269.87;;;42.90;;
11425;SDS011;5769;47.998;7.788;2024-03-07T13:25:07;269.87;;;43.50;;
11425;SDS011;5769;47.998;7.788;2024-03-07T13:27:39;267.67;;;43.00;;
11425;SDS011;5769;47.998;7.788;2024-03-07T13:30:09;269.90;;;43.40;;
11425;SDS011;5769;47.998;7.788;2024-03-07T13:32:48;269.90;;;43.30;;
11425;SDS011;5769;47.998;7.788;2024-03-07T13:35:16;265.63;;;42.73;;
11425;SDS011;5769;47.998;7.788;2024-03-07T13:40:32;269.77;;;43.70;;
11425;SDS011;5769;47.998;7.788;2024-03-07T13:43:03;267.47;;;43.10;;
11425;SDS011;5769;47.998;7.788;2024-03-07T13:45:31;267.80;;;43.20;;
11425;SDS011;5769;47.998;7.788;2024-03-07T13:48:04;267.07;;;42.97;;
11425;SDS011;5769;47.998;7.788;2024-03-07T13:50:32;268.27;;;43.00;;
11425;SDS011;5769;47.998;7.788;2024-03-07T13:53:00;268.03;;;43.30;;
11425;SDS011;5769;47.998;7.788;2024-03-07T13:55:50;270.87;;;43.23;;
11425;SDS011;5769;47.998;7.788;2024-03-07T13:58:26;273.47;;;43.53;;
11425;SDS011;5769;47.998;7.788;2024-03-07T14:01:08;270.90;;;43.77;;
11425;SDS011;5769;47.998;7.788;2024-03-07T14:03:58;269.83;;;43.10;;
11425;SDS011;5769;47.998;7.788;2024-03-07T14:07:00;270.13;;;43.23;;
11425;SDS011;5769;47.998;7.788;2024-03-07T14:09:42;268.53;;;43.10;;
11425;SDS011;5769;47.998;7.788;2024-03-07T14:21:34;269.73;;;43.00;;
11425;SDS011;5769;47.998;7.788;2024-03-07T14:24:46;271.67;;;43.37;;
11425;SDS011;5769;47.998;7.788;2024-03-07T14:30:50;271.20;;;43.40;;
11425;SDS011;5769;47.998;7.788;2024-03-07T14:33:26;269.10;;;43.23;;
11425;SDS011;5769;47.998;7.788;2024-03-07T14:36:41;269.93;;;43.63;;
11425;SDS011;5769;47.998;7.788;2024-03-07T14:39:11;270.50;;;43.40;;
11425;SDS011;5769;47.998;7.788;2024-03-07T14:41:48;271.60;;;43.60;;
11425;SDS011;5769;47.998;7.788;2024-03-07T14:44:27;272.63;;;43.50;;
11425;SDS011;5769;47.998;7.788;2024-03-07T14:46:57;269.03;;;43.13;;
11425;SDS011;5769;47.998;7.788;2024-03-07T14:49:31;268.87;;;43.53;;